• Join FlightAware (Why Join?)
  • Login
  • US Flag 
03:57AM EDT


 

Airport Tracker/Info


-or-


 

Live Flight TrackerFlight Track Log ✈ AWE1092 ✈ 15-Apr-2013 ✈ KPHL - KRDU

Flight Track Log - Related Links

Times and Time Zones

All times are in EDT time to prevent confusion due to time zone crossing. See the AWE1092 flight status page for this flight to view local times or setup timezone preferences in your user account.

Time Position Orientation Groundspeed Altitude Reporting Facility
EDT Latitude Longitude Course Direction KTS MPH feet Rate Location/Type
09:52AM 39.8753 -75.2086 201° Southwest 154 177 1,300  Level FAA TRACON SMA TRACON (SMA)
09:52AM 39.8689 -75.1892 113° Southeast 163 188 1,800 1,320 Climbing FAA TRACON SMA TRACON (SMA)
09:53AM 39.8625 -75.1669 111° Southeast 213 245 2,200 1,800 Climbing FAA TRACON SMA TRACON (SMA)
09:53AM 39.8553 -75.1447 113° Southeast 223 257 3,000 2,520 Climbing FAA TRACON SMA TRACON (SMA)
09:53AM 39.8467 -75.1147 110° East 232 267 3,900 2,520 Climbing FAA TRACON SMA TRACON (SMA)
09:54AM 39.5790 -75.3009 189° South  Level FlightAware Approximate
09:54AM 39.8356 -75.0922 123° Southeast 258 297 4,700  Level FAA TRACON SMA TRACON (SMA)
09:54AM 39.8108 -75.0872 171° South 244 281 5,400 2,520 Climbing FAA TRACON SMA TRACON (SMA)
09:54AM 39.7919 -75.1022 211° Southwest 256 295 6,400 3,000 Climbing FAA TRACON SMA TRACON (SMA)
09:55AM 39.4799 -75.3234 194° South  Level FlightAware Approximate
09:55AM 39.7739 -75.1156 210° Southwest 257 296 7,400  Level FAA TRACON SMA TRACON (SMA)
09:55AM 39.7533 -75.1322 212° Southwest 271 312 8,400 3,420 Climbing FAA TRACON SMA TRACON (SMA)
09:55AM 39.7281 -75.1519 211° Southwest 276 318 9,700 3,300 Climbing FAA TRACON SMA TRACON (SMA)
09:56AM 39.3804 -75.3392 185° South  Level FlightAware Approximate
09:56AM 39.7067 -75.1686 211° Southwest 289 333 10,600  Level FAA TRACON SMA TRACON (SMA)
09:56AM 39.6856 -75.1858 212° Southwest 308 354 10,800 1,320 Climbing FAA TRACON SMA TRACON (SMA)
09:56AM 39.6533 -75.2108 211° Southwest 336 387 11,500 2,520 Climbing FAA TRACON SMA TRACON (SMA)
09:57AM 39.2803 -75.3515 201° Southwest  Level FlightAware Approximate
09:57AM 39.6281 -75.2300 210° Southwest 342 394 12,500  Level FAA TRACON SMA TRACON (SMA)
09:57AM 39.6031 -75.2497 211° Southwest 341 392 13,500 2,520 Climbing FAA TRACON SMA TRACON (SMA)
09:57AM 39.5842 -75.2644 211° Southwest 343 395 14,200 1,200 Climbing FAA TRACON SMA TRACON (SMA)
10:00AM 39.3508 -75.3581 197° South 354 407 16,800 780 Climbing Washington Center
10:01AM 39.2528 -75.3772 189° South 359 413 17,000 300 Climbing Washington Center
10:02AM 39.1528 -75.3936 187° South 364 419 17,500 1,200 Climbing Washington Center
10:03AM 39.0464 -75.4100 187° South 379 436 19,400 2,100 Climbing Washington Center
10:04AM 38.9381 -75.4236 186° South 389 448 21,800 2,160 Climbing Washington Center
10:05AM 38.8256 -75.4425 187° South 401 461 23,800 1,860 Climbing Washington Center
10:06AM 38.7153 -75.4586 187° South 406 467 25,600 1,080 Climbing Washington Center
10:07AM 38.5983 -75.4775 187° South 412 474 26,000 180 Climbing Washington Center
10:08AM 38.4922 -75.4883 185° South 424 488 26,000  Level Washington Center
10:09AM 38.3775 -75.5069 187° South 424 488 26,000  Level Washington Center
10:10AM 38.2733 -75.5547 200° South 411 473 26,000  Level Washington Center
10:11AM 38.1731 -75.6181 206° Southwest 406 467 26,000  Level Washington Center
10:12AM 38.0731 -75.6789 206° Southwest 406 467 26,000  Level Washington Center
10:13AM 37.9750 -75.7444 208° Southwest 406 467 26,000  Level Washington Center
10:14AM 37.8728 -75.8075 206° Southwest 406 467 26,000  Level Washington Center
10:15AM 37.7600 -75.8728 205° Southwest 406 467 26,000  Level Washington Center
10:16AM 37.6806 -75.9225 206° Southwest 387 445 26,000  Level Washington Center
10:17AM 37.5928 -75.9903 211° Southwest 381 438 26,000 -60 Level Washington Center
10:18AM 37.5278 -76.0894 230° Southwest 367 422 25,900 -600 Descending Washington Center
10:19AM 37.4625 -76.1858 230° Southwest 367 422 24,900 -960 Descending Washington Center
10:20AM 37.3994 -76.2794 230° Southwest 367 422 24,000 -480 Descending Washington Center
10:21AM 37.3364 -76.3756 230° Southwest 367 422 24,000  Level Washington Center
10:22AM 37.2731 -76.4739 231° Southwest 367 422 24,000 -60 Level Washington Center
10:23AM 37.2097 -76.5725 231° Southwest 367 422 23,900 -900 Descending Washington Center
10:24AM 37.1483 -76.6706 232° Southwest 367 422 22,200 -960 Descending Washington Center
10:25AM 37.0869 -76.7661 231° Southwest 367 422 22,000 -120 Descending Washington Center
10:26AM 37.0236 -76.8639 231° Southwest 367 422 22,000  Level Washington Center
10:27AM 36.9661 -76.9592 233° Southwest 367 422 22,000  Level Washington Center
10:28AM 36.9025 -77.0542 230° Southwest 367 422 22,000  Level Washington Center
10:29AM 36.8408 -77.1492 231° Southwest 361 415 22,000  Level Washington Center
10:30AM 36.7811 -77.2464 233° Southwest 361 415 22,000  Level Washington Center
10:31AM 36.7150 -77.3408 229° Southwest 361 415 22,000  Level Washington Center
10:32AM 36.6531 -77.4353 231° Southwest 361 415 22,000  Level Washington Center
10:33AM 36.5911 -77.5322 232° Southwest 361 415 22,000  Level Washington Center
10:34AM 36.5289 -77.6261 231° Southwest 361 415 22,000  Level Washington Center
10:35AM 36.4669 -77.7203 231° Southwest 361 415 22,000 -660 Level Washington Center
10:36AM 36.3981 -77.8267 231° Southwest 361 415 20,700 -1,620 Descending Washington Center
10:37AM 36.3381 -77.9178 231° Southwest 361 415 18,800 -1,800 Descending Washington Center
10:38AM 36.2797 -78.0089 232° Southwest 350 403 17,200 -1,740 Descending Washington Center
10:38AM 36.2283 -78.0844 230° Southwest 323 372 15,600 -1,800 Descending Washington Center
10:39AM 36.1700 -78.1675 229° Southwest 315 362 13,900 -1,680 Descending Washington Center
10:40AM 36.1308 -78.2511 240° Southwest 308 354 12,400 -1,440 Descending Washington Center
10:41AM 36.0869 -78.3397 239° Southwest 305 351 11,200 -1,080 Descending Washington Center
10:42AM 36.0431 -78.4306 239° Southwest 308 354 10,300 -840 Descending Washington Center
10:44AM 35.9947 -78.5317 239° Southwest 309 356 9,400 -900 Descending Washington Center
10:44AM 35.9456 -78.5811 219° Southwest 271 312 8,600 -780 Descending Washington Center
10:45AM 35.8942 -78.6328 219° Southwest 237 273 8,000 -600 Descending Washington Center
10:46AM 35.8386 -78.6819 216° Southwest 228 262 7,500 -840 Descending Washington Center
10:47AM 35.7956 -78.7367 226° Southwest 234 269 6,300 -1,080 Descending Washington Center
10:48AM 35.7544 -78.7889 226° Southwest 201 231 5,400 -1,200 Descending Washington Center
10:49AM 35.7114 -78.8433 226° Southwest 203 234 3,900 -1,200 Descending Washington Center
10:50AM 35.7033 -78.9069 261° West 224 258 3,000 -600 Descending Washington Center
10:51AM 35.7550 -78.9194 349° North 205 236 2,700 -300 Descending Washington Center